Time;durP1;ratioP1;P1;durP2;ratioP2;P2;SDS_P1;SDS_P2;PMS_P1;PMS_P2;Temp;Humidity;BMP_temperature;BMP_pressure;BME280_temperature;BME280_humidity;BME280_pressure;Samples;Min_cycle;Max_cycle;Signal;HPM_P1;HPM_P2
2022/11/27 00:00:06;;;;;;;165.83;23.00;;;;;;;;;;5158560;27;20474;-68
2022/11/27 00:02:33;;;;;;;169.90;24.60;;;;;;;;;;5158387;27;20489;-69
2022/11/27 00:05:00;;;;;;;176.63;23.47;;;;;;;;;;5157733;27;20814;-69
2022/11/27 00:07:27;;;;;;;79.10;16.67;;;;;;;;;;5158224;27;20472;-68
2022/11/27 00:09:55;;;;;;;102.90;20.80;;;;;;;;;;5158083;27;20940;-70
2022/11/27 00:12:22;;;;;;;81.57;16.63;;;;;;;;;;5158089;27;20498;-68
2022/11/27 00:14:50;;;;;;;70.03;16.80;;;;;;;;;;5155372;27;20465;-70
2022/11/27 00:17:17;;;;;;;63.30;17.37;;;;;;;;;;5158259;27;20989;-69
2022/11/27 00:19:44;;;;;;;30.33;14.17;;;;;;;;;;5157186;27;20452;-70
2022/11/27 00:22:11;;;;;;;51.83;15.43;;;;;;;;;;5158108;27;20542;-70
2022/11/27 00:24:38;;;;;;;115.63;18.20;;;;;;;;;;5157191;27;20443;-68
2022/11/27 00:27:07;;;;;;;94.53;16.17;;;;;;;;;;5157801;27;20474;-70
2022/11/27 00:29:34;;;;;;;77.40;16.27;;;;;;;;;;5157939;27;20448;-68
2022/11/27 00:32:01;;;;;;;31.53;14.00;;;;;;;;;;5157961;27;20802;-68
2022/11/27 00:34:28;;;;;;;64.10;18.07;;;;;;;;;;5157212;27;20458;-70
2022/11/27 00:36:55;;;;;;;48.27;16.80;;;;;;;;;;5157719;27;20841;-70
2022/11/27 00:39:22;;;;;;;80.57;17.73;;;;;;;;;;5157691;27;20447;-68
2022/11/27 00:41:49;;;;;;;105.13;20.17;;;;;;;;;;5157624;27;20533;-68
2022/11/27 00:44:18;;;;;;;93.37;17.10;;;;;;;;;;5156871;27;20452;-69
2022/11/27 00:46:45;;;;;;;71.33;15.00;;;;;;;;;;5157494;27;20463;-70
2022/11/27 00:49:13;;;;;;;54.27;15.37;;;;;;;;;;5157380;27;20444;-71
2022/11/27 00:51:41;;;;;;;62.63;14.27;;;;;;;;;;5157492;27;20443;-70
2022/11/27 00:54:08;;;;;;;49.43;14.33;;;;;;;;;;5156736;27;20483;-69
2022/11/27 00:56:36;;;;;;;157.57;17.57;;;;;;;;;;5157316;27;20834;-70
2022/11/27 00:59:04;;;;;;;75.17;15.93;;;;;;;;;;5157426;27;20937;-70
2022/11/27 01:01:34;;;;;;;59.63;15.50;;;;;;;;;;5156127;27;20443;-70
2022/11/27 01:04:01;;;;;;;94.97;16.97;;;;;;;;;;5156418;27;20439;-68
2022/11/27 01:06:29;;;;;;;35.87;12.73;;;;;;;;;;5157075;27;20482;-68
2022/11/27 01:08:57;;;;;;;119.20;15.63;;;;;;;;;;5157021;27;20443;-67
2022/11/27 01:11:25;;;;;;;50.97;12.20;;;;;;;;;;5157023;27;20462;-70
2022/11/27 01:13:53;;;;;;;68.97;11.77;;;;;;;;;;5156175;27;21000;-69
2022/11/27 01:16:21;;;;;;;72.90;11.77;;;;;;;;;;5154671;27;20478;-70
2022/11/27 01:18:50;;;;;;;51.00;11.87;;;;;;;;;;5155656;27;20454;-70
2022/11/27 01:21:18;;;;;;;44.07;10.33;;;;;;;;;;5156947;27;20477;-69
2022/11/27 01:23:46;;;;;;;18.03;11.30;;;;;;;;;;5156120;27;20458;-69
2022/11/27 01:26:13;;;;;;;47.83;13.30;;;;;;;;;;5156807;27;20814;-69
2022/11/27 01:28:40;;;;;;;28.03;11.07;;;;;;;;;;5156598;27;20450;-69
2022/11/27 01:31:09;;;;;;;36.00;14.00;;;;;;;;;;5156730;27;20940;-69
2022/11/27 01:33:36;;;;;;;41.57;14.90;;;;;;;;;;5155784;27;20559;-69
2022/11/27 01:36:06;;;;;;;59.50;13.03;;;;;;;;;;5156536;27;20447;-69
2022/11/27 01:38:34;;;;;;;24.27;10.50;;;;;;;;;;5156584;27;20463;-69
2022/11/27 01:41:02;;;;;;;107.13;14.83;;;;;;;;;;5156410;27;20440;-68
2022/11/27 01:43:39;;;;;;;75.27;14.70;;;;;;;;;;5155780;27;20461;-70
2022/11/27 01:46:08;;;;;;;119.37;17.03;;;;;;;;;;5156232;27;20451;-69
2022/11/27 01:48:35;;;;;;;170.60;20.30;;;;;;;;;;5156385;27;20443;-69
2022/11/27 01:51:03;;;;;;;64.27;15.17;;;;;;;;;;5156431;27;20443;-68
2022/11/27 01:53:33;;;;;;;51.40;15.20;;;;;;;;;;5155718;27;20848;-69
2022/11/27 01:56:01;;;;;;;123.70;17.67;;;;;;;;;;5156010;27;20516;-68
2022/11/27 01:58:29;;;;;;;131.13;16.77;;;;;;;;;;5156111;27;20956;-69
2022/11/27 02:00:56;;;;;;;123.57;15.90;;;;;;;;;;5156027;27;20439;-69
2022/11/27 02:03:23;;;;;;;78.30;15.67;;;;;;;;;;5155891;27;20530;-68
2022/11/27 02:05:50;;;;;;;116.93;17.57;;;;;;;;;;5155394;27;20455;-68
2022/11/27 02:08:18;;;;;;;67.63;17.13;;;;;;;;;;5155845;27;20464;-70
2022/11/27 02:10:50;;;;;;;56.13;14.93;;;;;;;;;;5155670;27;20450;-70
2022/11/27 02:13:21;;;;;;;97.67;17.57;;;;;;;;;;5155245;27;20514;-68
2022/11/27 02:15:51;;;;;;;73.80;16.90;;;;;;;;;;5153245;27;20451;-69
2022/11/27 02:18:23;;;;;;;42.77;14.50;;;;;;;;;;5155626;27;20475;-68
2022/11/27 02:20:53;;;;;;;81.93;16.50;;;;;;;;;;5154566;27;20447;-70
2022/11/27 02:23:30;;;;;;;123.27;16.87;;;;;;;;;;5155512;27;20444;-69
2022/11/27 02:26:07;;;;;;;106.50;15.70;;;;;;;;;;5155461;27;20517;-70
2022/11/27 02:28:42;;;;;;;34.73;14.07;;;;;;;;;;5155523;27;20519;-69
2022/11/27 02:31:14;;;;;;;70.70;14.77;;;;;;;;;;5155672;27;20447;-70
2022/11/27 02:33:44;;;;;;;53.73;15.10;;;;;;;;;;5154782;27;20490;-69
2022/11/27 02:36:15;;;;;;;79.13;16.60;;;;;;;;;;5155391;27;20936;-68
2022/11/27 02:38:45;;;;;;;34.07;14.90;;;;;;;;;;5155367;27;20456;-68
2022/11/27 02:41:16;;;;;;;24.50;13.10;;;;;;;;;;5155494;27;20462;-68
2022/11/27 02:43:45;;;;;;;34.90;13.07;;;;;;;;;;5154789;27;20448;-70
2022/11/27 02:46:14;;;;;;;46.57;14.80;;;;;;;;;;5155181;27;20451;-69
2022/11/27 02:48:44;;;;;;;33.53;14.70;;;;;;;;;;5155069;27;20452;-69
2022/11/27 02:51:12;;;;;;;57.43;14.70;;;;;;;;;;5155407;27;20492;-69
2022/11/27 02:53:43;;;;;;;46.03;13.93;;;;;;;;;;5154639;27;20495;-69
2022/11/27 02:56:13;;;;;;;31.97;15.37;;;;;;;;;;5154897;27;20941;-69
2022/11/27 02:58:41;;;;;;;69.00;15.30;;;;;;;;;;5154784;27;20447;-69
2022/11/27 03:01:10;;;;;;;77.77;18.27;;;;;;;;;;5154957;27;20454;-68
2022/11/27 03:03:41;;;;;;;76.60;17.73;;;;;;;;;;5154283;27;20447;-69
2022/11/27 03:06:10;;;;;;;29.67;14.00;;;;;;;;;;5154678;27;20447;-69
2022/11/27 03:08:39;;;;;;;29.63;14.40;;;;;;;;;;5154836;27;20948;-70
2022/11/27 03:11:08;;;;;;;37.40;14.00;;;;;;;;;;5154654;27;20452;-70
2022/11/27 03:13:37;;;;;;;32.83;15.77;;;;;;;;;;5154127;27;20980;-69
2022/11/27 03:16:07;;;;;;;35.20;15.30;;;;;;;;;;5152737;27;20531;-70
2022/11/27 03:18:37;;;;;;;29.00;13.13;;;;;;;;;;5153410;27;20796;-72
2022/11/27 03:21:08;;;;;;;43.33;15.27;;;;;;;;;;5154415;27;20444;-69
2022/11/27 03:23:35;;;;;;;55.40;13.63;;;;;;;;;;5154014;27;20929;-70
2022/11/27 03:26:02;;;;;;;44.80;14.90;;;;;;;;;;5153635;27;20447;-69
2022/11/27 03:28:29;;;;;;;39.53;14.80;;;;;;;;;;5154708;27;20454;-69
2022/11/27 03:30:56;;;;;;;59.37;18.20;;;;;;;;;;5154618;27;20459;-69
2022/11/27 03:33:23;;;;;;;117.80;20.37;;;;;;;;;;5154289;27;20475;-70
2022/11/27 03:35:51;;;;;;;79.83;17.93;;;;;;;;;;5154008;27;20447;-70
2022/11/27 03:38:19;;;;;;;78.33;18.87;;;;;;;;;;5154421;27;20851;-70
2022/11/27 03:40:54;;;;;;;43.70;16.73;;;;;;;;;;5154407;27;20450;-69
2022/11/27 03:43:24;;;;;;;74.67;17.20;;;;;;;;;;5154521;27;20445;-71
2022/11/27 03:45:53;;;;;;;66.97;16.63;;;;;;;;;;5154059;27;20449;-68
2022/11/27 03:48:24;;;;;;;72.90;17.57;;;;;;;;;;5154206;27;20466;-69
2022/11/27 03:50:59;;;;;;;121.73;19.17;;;;;;;;;;5154129;27;20451;-69
2022/11/27 03:53:32;;;;;;;33.83;20.00;;;;;;;;;;5154318;27;20485;-69
2022/11/27 03:56:02;;;;;;;158.20;21.73;;;;;;;;;;5154349;27;20469;-69
2022/11/27 03:58:34;;;;;;;120.50;17.73;;;;;;;;;;5154508;27;20440;-69
2022/11/27 04:01:01;;;;;;;185.73;22.13;;;;;;;;;;5154162;27;20501;-69
2022/11/27 04:03:29;;;;;;;137.20;20.57;;;;;;;;;;5153585;27;20444;-69
2022/11/27 04:05:57;;;;;;;184.40;19.40;;;;;;;;;;5154041;27;20451;-68
2022/11/27 04:08:24;;;;;;;149.20;17.20;;;;;;;;;;5154273;27;20443;-69
2022/11/27 04:10:52;;;;;;;160.80;19.70;;;;;;;;;;5154120;27;20912;-69
2022/11/27 04:13:20;;;;;;;43.00;13.20;;;;;;;;;;5153830;27;20470;-70
2022/11/27 04:15:47;;;;;;;140.13;16.97;;;;;;;;;;5151006;27;20825;-69
2022/11/27 04:18:14;;;;;;;234.00;26.30;;;;;;;;;;5154275;27;20481;-68
2022/11/27 04:20:41;;;;;;;149.57;18.87;;;;;;;;;;5152492;27;20448;-70
2022/11/27 04:23:08;;;;;;;221.80;22.37;;;;;;;;;;5154043;27;20462;-69
2022/11/27 04:25:36;;;;;;;262.43;23.23;;;;;;;;;;5153225;27;20458;-68
2022/11/27 04:28:04;;;;;;;53.87;10.80;;;;;;;;;;5153918;27;20455;-69
2022/11/27 04:30:32;;;;;;;201.27;19.47;;;;;;;;;;5153905;27;20452;-69
2022/11/27 04:32:59;;;;;;;154.47;15.77;;;;;;;;;;5153809;27;20547;-69
2022/11/27 04:35:26;;;;;;;332.17;28.00;;;;;;;;;;5153152;27;20479;-68
2022/11/27 04:37:53;;;;;;;182.87;22.60;;;;;;;;;;5157401;27;20846;-68
2022/11/27 04:40:20;;;;;;;206.80;20.10;;;;;;;;;;5157755;27;20447;-69
2022/11/27 04:42:47;;;;;;;143.07;22.33;;;;;;;;;;5157567;27;20818;-68
2022/11/27 04:45:16;;;;;;;136.57;15.90;;;;;;;;;;5157002;27;20952;-69
2022/11/27 04:47:43;;;;;;;97.17;15.27;;;;;;;;;;5157497;27;20913;-69
2022/11/27 04:50:10;;;;;;;132.77;17.30;;;;;;;;;;5157572;27;20450;-68
2022/11/27 04:52:38;;;;;;;43.47;11.70;;;;;;;;;;5157590;27;20807;-69
2022/11/27 04:55:05;;;;;;;60.90;12.17;;;;;;;;;;5156647;27;20901;-69
2022/11/27 04:57:32;;;;;;;134.43;18.83;;;;;;;;;;5157282;27;20467;-70
2022/11/27 04:59:59;;;;;;;67.20;13.23;;;;;;;;;;5157455;27;20453;-69
2022/11/27 05:02:28;;;;;;;100.73;15.43;;;;;;;;;;5157355;27;20446;-68
2022/11/27 05:04:55;;;;;;;149.63;18.57;;;;;;;;;;5156519;27;20937;-70
2022/11/27 05:07:22;;;;;;;252.63;24.60;;;;;;;;;;5157077;27;20463;-69
2022/11/27 05:09:49;;;;;;;136.53;15.27;;;;;;;;;;5157088;27;20451;-70
2022/11/27 05:12:16;;;;;;;53.50;11.57;;;;;;;;;;5157049;27;20482;-69
2022/11/27 05:14:43;;;;;;;173.50;21.87;;;;;;;;;;5153759;27;20858;-69
2022/11/27 05:17:11;;;;;;;100.90;13.40;;;;;;;;;;5156783;27;20477;-69
2022/11/27 05:19:39;;;;;;;187.73;20.63;;;;;;;;;;5155169;27;20447;-69
2022/11/27 05:22:06;;;;;;;113.50;16.53;;;;;;;;;;5156926;27;20444;-69
2022/11/27 05:24:33;;;;;;;61.17;12.13;;;;;;;;;;5156124;27;20440;-69
2022/11/27 05:27:00;;;;;;;190.90;20.97;;;;;;;;;;5156741;27;20464;-69
2022/11/27 05:29:28;;;;;;;95.03;14.90;;;;;;;;;;5156688;27;20447;-69
2022/11/27 05:31:55;;;;;;;85.47;14.57;;;;;;;;;;5156902;27;20785;-69
2022/11/27 05:34:22;;;;;;;214.67;20.93;;;;;;;;;;5156088;27;20483;-69
2022/11/27 05:36:50;;;;;;;302.97;27.73;;;;;;;;;;5156369;27;20468;-70
2022/11/27 05:39:18;;;;;;;118.83;16.20;;;;;;;;;;5156519;27;20448;-69
2022/11/27 05:41:45;;;;;;;92.43;15.87;;;;;;;;;;5156461;27;20484;-69
2022/11/27 05:44:13;;;;;;;178.60;23.73;;;;;;;;;;5155975;27;20450;-69
2022/11/27 05:46:42;;;;;;;33.73;13.77;;;;;;;;;;5156548;27;20459;-69
2022/11/27 05:49:10;;;;;;;83.40;19.37;;;;;;;;;;5155616;27;20471;-70
2022/11/27 05:51:37;;;;;;;367.03;121.83;;;;;;;;;;5156219;27;20462;-69
2022/11/27 05:54:06;;;;;;;191.00;41.10;;;;;;;;;;5155816;27;20484;-68
2022/11/27 05:56:33;;;;;;;112.13;14.07;;;;;;;;;;5156166;27;20464;-68
2022/11/27 05:59:00;;;;;;;91.40;14.00;;;;;;;;;;5156268;27;20443;-68
2022/11/27 06:01:27;;;;;;;151.37;61.00;;;;;;;;;;5156267;27;20443;-68
2022/11/27 06:03:54;;;;;;;42.03;15.60;;;;;;;;;;5155262;27;20447;-68
2022/11/27 06:06:21;;;;;;;46.57;10.60;;;;;;;;;;5156059;27;20463;-68
2022/11/27 06:08:49;;;;;;;54.80;11.17;;;;;;;;;;5156126;27;20451;-68
2022/11/27 06:11:18;;;;;;;31.40;9.90;;;;;;;;;;5156110;27;20444;-68
2022/11/27 06:13:46;;;;;;;20.20;10.07;;;;;;;;;;5155061;27;20471;-69
2022/11/27 06:16:14;;;;;;;43.43;9.73;;;;;;;;;;5153828;27;20831;-69
2022/11/27 06:18:41;;;;;;;51.80;10.37;;;;;;;;;;5154865;27;20447;-70
2022/11/27 06:21:09;;;;;;;67.23;8.47;;;;;;;;;;5155998;27;20447;-68
2022/11/27 06:23:36;;;;;;;88.70;13.20;;;;;;;;;;5155116;27;20447;-69
2022/11/27 06:26:13;;;;;;;98.83;18.07;;;;;;;;;;5155478;27;20452;-69
2022/11/27 06:28:42;;;;;;;67.33;10.83;;;;;;;;;;5155434;27;20457;-69
2022/11/27 06:31:10;;;;;;;37.40;12.37;;;;;;;;;;5155524;27;20820;-68
2022/11/27 06:33:37;;;;;;;33.77;15.87;;;;;;;;;;5154745;27;20444;-70
2022/11/27 06:36:05;;;;;;;22.07;11.10;;;;;;;;;;5155344;27;20486;-68
2022/11/27 06:38:32;;;;;;;80.27;10.00;;;;;;;;;;5155475;27;20447;-69
2022/11/27 06:41:02;;;;;;;54.33;11.47;;;;;;;;;;5155427;27;20448;-68
2022/11/27 06:43:29;;;;;;;58.07;11.53;;;;;;;;;;5154754;27;20447;-69
2022/11/27 06:45:58;;;;;;;63.73;12.77;;;;;;;;;;5153652;27;20976;-68
2022/11/27 06:48:25;;;;;;;76.30;12.40;;;;;;;;;;5152467;27;20440;-68
2022/11/27 06:50:52;;;;;;;23.70;8.73;;;;;;;;;;5154758;27;20452;-68
2022/11/27 06:53:20;;;;;;;19.73;7.10;;;;;;;;;;5155129;27;20555;-69
2022/11/27 06:55:47;;;;;;;36.50;9.20;;;;;;;;;;5154648;27;21003;-69
2022/11/27 06:58:14;;;;;;;11.90;6.43;;;;;;;;;;5153156;27;20490;-69
2022/11/27 07:00:41;;;;;;;25.83;7.50;;;;;;;;;;5153791;27;20817;-68
2022/11/27 07:03:10;;;;;;;44.83;8.83;;;;;;;;;;5154836;27;20444;-68
2022/11/27 07:05:37;;;;;;;53.70;8.67;;;;;;;;;;5153881;27;20450;-68
2022/11/27 07:08:05;;;;;;;24.80;8.70;;;;;;;;;;5154663;27;20471;-68
2022/11/27 07:10:33;;;;;;;17.63;8.33;;;;;;;;;;5154521;27;20455;-69
2022/11/27 07:13:01;;;;;;;16.27;7.17;;;;;;;;;;5154460;27;20460;-68
2022/11/27 07:15:28;;;;;;;165.37;49.33;;;;;;;;;;5152222;27;20506;-69
2022/11/27 07:17:55;;;;;;;689.47;212.77;;;;;;;;;;5154265;27;20471;-68
2022/11/27 07:20:23;;;;;;;49.77;14.13;;;;;;;;;;5153676;27;20458;-68
2022/11/27 07:22:51;;;;;;;141.73;37.73;;;;;;;;;;5154245;27;20790;-68
2022/11/27 07:25:18;;;;;;;103.03;20.77;;;;;;;;;;5154218;27;20443;-69
2022/11/27 07:27:45;;;;;;;72.33;10.10;;;;;;;;;;5154242;27;20475;-68
2022/11/27 07:30:12;;;;;;;50.73;11.20;;;;;;;;;;5154615;27;20451;-68
2022/11/27 07:32:40;;;;;;;39.50;9.87;;;;;;;;;;5154530;27;20818;-68
2022/11/27 07:35:07;;;;;;;20.80;6.87;;;;;;;;;;5154210;27;21003;-68
2022/11/27 07:37:36;;;;;;;37.97;9.10;;;;;;;;;;5154385;27;20559;-69
2022/11/27 07:40:03;;;;;;;30.27;8.07;;;;;;;;;;5154443;27;20454;-69
2022/11/27 07:42:30;;;;;;;39.80;8.50;;;;;;;;;;5154529;27;20546;-69
2022/11/27 07:44:57;;;;;;;43.73;13.20;;;;;;;;;;5154027;27;20812;-68
2022/11/27 07:47:24;;;;;;;92.67;19.70;;;;;;;;;;5154351;27;20470;-68
2022/11/27 07:49:53;;;;;;;12.07;6.03;;;;;;;;;;5154306;27;20443;-68
2022/11/27 07:52:21;;;;;;;17.70;8.10;;;;;;;;;;5154264;27;20459;-69
2022/11/27 07:54:49;;;;;;;53.87;9.57;;;;;;;;;;5153837;27;20471;-68
2022/11/27 07:57:16;;;;;;;47.37;8.50;;;;;;;;;;5154319;27;20471;-68
2022/11/27 07:59:43;;;;;;;37.50;8.90;;;;;;;;;;5154205;27;20451;-68
2022/11/27 08:02:12;;;;;;;41.20;9.30;;;;;;;;;;5154272;27;20963;-69
2022/11/27 08:04:39;;;;;;;26.47;10.17;;;;;;;;;;5153551;27;20450;-69
2022/11/27 08:07:06;;;;;;;47.47;9.30;;;;;;;;;;5154191;27;20467;-68
2022/11/27 08:09:33;;;;;;;48.50;9.80;;;;;;;;;;5154211;27;20443;-69
2022/11/27 08:12:02;;;;;;;56.00;8.73;;;;;;;;;;5156355;27;20446;-68
2022/11/27 08:14:29;;;;;;;104.77;14.60;;;;;;;;;;5157105;27;20928;-69
2022/11/27 08:16:56;;;;;;;35.67;8.37;;;;;;;;;;5157893;27;20474;-68
2022/11/27 08:19:23;;;;;;;97.47;13.90;;;;;;;;;;5157110;27;20460;-69
2022/11/27 08:21:51;;;;;;;56.73;10.93;;;;;;;;;;5158208;27;20484;-69
2022/11/27 08:24:18;;;;;;;40.00;9.30;;;;;;;;;;5157789;27;20504;-69
2022/11/27 08:26:45;;;;;;;87.43;13.83;;;;;;;;;;5157848;27;20470;-69
2022/11/27 08:29:14;;;;;;;73.33;14.50;;;;;;;;;;5158078;27;20820;-69
2022/11/27 08:31:41;;;;;;;79.90;16.10;;;;;;;;;;5157113;27;20454;-70
2022/11/27 08:34:08;;;;;;;130.30;15.83;;;;;;;;;;5157348;27;20995;-69
2022/11/27 08:36:35;;;;;;;97.27;12.57;;;;;;;;;;5157493;27;20483;-69
2022/11/27 08:39:02;;;;;;;103.37;13.27;;;;;;;;;;5157696;27;20475;-69
2022/11/27 08:41:29;;;;;;;34.87;7.80;;;;;;;;;;5157850;27;20807;-68
2022/11/27 08:43:57;;;;;;;79.00;8.97;;;;;;;;;;5157264;27;20446;-68
2022/11/27 08:46:25;;;;;;;76.97;16.40;;;;;;;;;;5157520;27;20466;-69
2022/11/27 08:48:52;;;;;;;120.10;14.93;;;;;;;;;;5157479;27;20444;-69
2022/11/27 08:51:19;;;;;;;193.43;18.00;;;;;;;;;;5157617;27;20465;-69
2022/11/27 08:53:46;;;;;;;173.23;25.50;;;;;;;;;;5156894;27;20462;-69
2022/11/27 08:56:16;;;;;;;58.57;9.83;;;;;;;;;;5157439;27;20483;-69
2022/11/27 08:58:43;;;;;;;115.27;14.30;;;;;;;;;;5157304;27;20928;-69
2022/11/27 09:01:12;;;;;;;68.13;10.10;;;;;;;;;;5157325;27;20447;-69
2022/11/27 09:03:40;;;;;;;57.33;9.90;;;;;;;;;;5156717;27;20443;-70
2022/11/27 09:06:08;;;;;;;62.93;12.57;;;;;;;;;;5157225;27;20535;-69
2022/11/27 09:08:35;;;;;;;73.30;9.93;;;;;;;;;;5157077;27;20450;-70
2022/11/27 09:11:04;;;;;;;18.33;6.40;;;;;;;;;;5157055;27;20450;-68
2022/11/27 09:13:31;;;;;;;78.83;9.63;;;;;;;;;;5156248;27;20455;-70
2022/11/27 09:15:58;;;;;;;187.17;17.90;;;;;;;;;;5154506;27;20841;-69
2022/11/27 09:18:26;;;;;;;37.30;8.23;;;;;;;;;;5157186;27;20447;-68
2022/11/27 09:20:58;;;;;;;34.47;7.20;;;;;;;;;;5155453;27;20789;-69
2022/11/27 09:23:25;;;;;;;61.57;9.67;;;;;;;;;;5155501;27;20444;-68
2022/11/27 09:25:52;;;;;;;50.87;8.90;;;;;;;;;;5156677;27;20448;-69
2022/11/27 09:28:20;;;;;;;34.93;7.27;;;;;;;;;;5156710;27;20470;-68
2022/11/27 09:30:47;;;;;;;51.63;10.00;;;;;;;;;;5156747;27;20443;-68
2022/11/27 09:33:14;;;;;;;68.77;12.53;;;;;;;;;;5156662;27;20447;-68
2022/11/27 09:35:41;;;;;;;78.13;10.10;;;;;;;;;;5155847;27;20494;-69
2022/11/27 09:38:10;;;;;;;57.57;8.73;;;;;;;;;;5156708;27;20563;-68
2022/11/27 09:40:37;;;;;;;97.23;14.23;;;;;;;;;;5156548;27;20439;-69
2022/11/27 09:43:08;;;;;;;56.50;14.13;;;;;;;;;;5156575;27;20819;-69
2022/11/27 09:45:40;;;;;;;83.53;13.30;;;;;;;;;;5155848;27;20443;-69
2022/11/27 09:48:10;;;;;;;60.50;18.07;;;;;;;;;;5156540;27;20463;-68
2022/11/27 09:50:41;;;;;;;52.30;12.80;;;;;;;;;;5156598;27;20466;-69
2022/11/27 09:53:14;;;;;;;31.93;7.00;;;;;;;;;;5156461;27;20540;-69
2022/11/27 09:55:42;;;;;;;108.27;15.53;;;;;;;;;;5155555;27;20544;-69
2022/11/27 09:58:15;;;;;;;58.33;12.80;;;;;;;;;;5156211;27;20474;-68
2022/11/27 10:00:43;;;;;;;78.20;16.70;;;;;;;;;;5156359;27;20928;-68
2022/11/27 10:03:13;;;;;;;21.20;8.40;;;;;;;;;;5156121;27;20451;-68
2022/11/27 10:05:46;;;;;;;59.80;14.03;;;;;;;;;;5155546;27;20803;-69
2022/11/27 10:08:19;;;;;;;39.07;12.40;;;;;;;;;;5156024;27;20460;-68
2022/11/27 10:10:55;;;;;;;39.37;12.30;;;;;;;;;;5155338;27;20464;-68
2022/11/27 10:13:35;;;;;;;50.23;19.20;;;;;;;;;;5155342;27;20488;-70
2022/11/27 10:16:04;;;;;;;41.57;7.97;;;;;;;;;;5153529;27;20483;-69
2022/11/27 10:18:34;;;;;;;45.43;14.83;;;;;;;;;;5155901;27;20966;-68
2022/11/27 10:21:08;;;;;;;80.80;13.57;;;;;;;;;;5155485;27;21025;-68
2022/11/27 10:23:41;;;;;;;33.67;9.33;;;;;;;;;;5155314;27;20504;-69
2022/11/27 10:26:13;;;;;;;76.30;18.60;;;;;;;;;;5155592;27;20452;-70
2022/11/27 10:28:42;;;;;;;44.87;12.67;;;;;;;;;;5155564;27;20831;-70
2022/11/27 10:31:12;;;;;;;66.50;15.23;;;;;;;;;;5155741;27;20444;-69
2022/11/27 10:33:43;;;;;;;124.57;62.07;;;;;;;;;;5154687;27;20879;-69
2022/11/27 10:36:14;;;;;;;56.67;30.57;;;;;;;;;;5155427;27;21023;-68
2022/11/27 10:38:44;;;;;;;27.00;9.33;;;;;;;;;;5155349;27;20447;-68
2022/11/27 10:41:15;;;;;;;118.83;16.33;;;;;;;;;;5149025;27;20879;-70
2022/11/27 10:43:42;;;;;;;86.60;14.93;;;;;;;;;;5151563;27;20458;-70
2022/11/27 10:46:12;;;;;;;20.67;8.70;;;;;;;;;;5153507;27;20454;-68
2022/11/27 10:48:39;;;;;;;14.23;9.23;;;;;;;;;;5136604;27;20474;-69
2022/11/27 10:51:10;;;;;;;23.07;8.00;;;;;;;;;;5132991;27;20444;-69
2022/11/27 10:53:40;;;;;;;33.60;10.50;;;;;;;;;;5132283;27;20452;-70
2022/11/27 10:56:19;;;;;;;27.20;10.90;;;;;;;;;;5132293;27;20488;-69
2022/11/27 10:58:47;;;;;;;28.13;16.93;;;;;;;;;;5132651;27;20784;-69
2022/11/27 11:01:16;;;;;;;43.00;32.57;;;;;;;;;;5132467;27;20445;-67
2022/11/27 11:03:43;;;;;;;75.60;51.03;;;;;;;;;;5131603;27;20459;-72
2022/11/27 11:06:15;;;;;;;11.97;6.97;;;;;;;;;;5132973;27;20460;-70
2022/11/27 11:08:42;;;;;;;17.73;12.00;;;;;;;;;;5132820;27;20460;-70
2022/11/27 11:11:10;;;;;;;13.80;9.17;;;;;;;;;;5132470;27;20746;-70
2022/11/27 11:13:45;;;;;;;16.47;9.57;;;;;;;;;;5132154;27;20555;-67
2022/11/27 11:16:17;;;;;;;15.77;9.00;;;;;;;;;;5130553;27;21026;-69
2022/11/27 11:18:47;;;;;;;17.90;9.90;;;;;;;;;;5131411;27;20791;-69
2022/11/27 11:21:16;;;;;;;13.73;9.33;;;;;;;;;;5132650;27;20575;-70
2022/11/27 11:23:45;;;;;;;14.77;10.10;;;;;;;;;;5131862;27;20448;-71
2022/11/27 11:26:15;;;;;;;12.00;6.97;;;;;;;;;;5131926;27;20501;-68
2022/11/27 11:28:49;;;;;;;15.13;10.00;;;;;;;;;;5132271;27;20456;-68
2022/11/27 11:31:18;;;;;;;14.13;8.50;;;;;;;;;;5132389;27;20453;-67
2022/11/27 11:33:51;;;;;;;15.87;8.90;;;;;;;;;;5131246;27;20451;-68
2022/11/27 11:36:18;;;;;;;11.13;6.97;;;;;;;;;;5132302;27;20488;-68
2022/11/27 11:38:47;;;;;;;15.13;9.40;;;;;;;;;;5132160;27;20462;-68
2022/11/27 11:41:16;;;;;;;11.93;8.13;;;;;;;;;;5136743;27;20451;-67
2022/11/27 11:43:53;;;;;;;13.70;7.90;;;;;;;;;;5153455;27;20452;-68
2022/11/27 11:46:23;;;;;;;12.43;8.60;;;;;;;;;;5153512;27;20471;-67
2022/11/27 11:48:54;;;;;;;10.30;7.60;;;;;;;;;;5154299;27;20482;-69
2022/11/27 11:51:25;;;;;;;67.80;36.57;;;;;;;;;;5154285;27;20450;-67
2022/11/27 11:54:02;;;;;;;11.93;8.40;;;;;;;;;;5153648;27;20440;-68
2022/11/27 11:56:32;;;;;;;17.53;7.83;;;;;;;;;;5154223;27;20497;-67
2022/11/27 11:59:01;;;;;;;23.60;12.57;;;;;;;;;;5154294;27;20454;-67
2022/11/27 12:01:39;;;;;;;12.37;8.73;;;;;;;;;;5154346;27;20456;-67
2022/11/27 12:04:12;;;;;;;16.23;10.30;;;;;;;;;;5153709;27;20444;-68
2022/11/27 12:06:44;;;;;;;14.30;6.07;;;;;;;;;;5154066;27;20998;-70
2022/11/27 12:09:26;;;;;;;15.53;11.67;;;;;;;;;;5154624;27;20458;-67
2022/11/27 12:11:58;;;;;;;19.80;13.83;;;;;;;;;;5150382;27;20956;-68
2022/11/27 12:14:36;;;;;;;13.33;7.57;;;;;;;;;;5153500;27;20452;-69
2022/11/27 12:17:11;;;;;;;11.03;6.37;;;;;;;;;;5153682;27;20493;-67
2022/11/27 12:19:55;;;;;;;11.80;8.47;;;;;;;;;;5153321;27;20454;-68
2022/11/27 12:22:29;;;;;;;10.57;6.63;;;;;;;;;;5154088;27;20563;-68
2022/11/27 12:25:02;;;;;;;6.20;4.30;;;;;;;;;;5153512;27;20447;-67
2022/11/27 12:27:33;;;;;;;6.80;5.40;;;;;;;;;;5153840;27;20463;-67
2022/11/27 12:30:09;;;;;;;12.70;7.27;;;;;;;;;;5154163;27;20436;-68
2022/11/27 12:32:59;;;;;;;10.63;8.50;;;;;;;;;;5153900;27;20454;-67
2022/11/27 12:35:41;;;;;;;10.10;7.00;;;;;;;;;;5147181;27;20452;-68
2022/11/27 12:38:16;;;;;;;10.60;7.03;;;;;;;;;;5154025;27;20807;-67
2022/11/27 12:40:49;;;;;;;9.73;5.50;;;;;;;;;;5153924;27;20449;-67
2022/11/27 12:43:20;;;;;;;12.80;6.87;;;;;;;;;;5154021;27;20439;-67
2022/11/27 12:45:50;;;;;;;11.27;7.10;;;;;;;;;;5153507;27;20440;-67
2022/11/27 12:48:19;;;;;;;13.43;8.67;;;;;;;;;;5153560;27;20467;-68
2022/11/27 12:50:49;;;;;;;12.00;8.00;;;;;;;;;;5153676;27;20447;-67
2022/11/27 12:53:19;;;;;;;14.57;7.30;;;;;;;;;;5153989;27;20937;-67
2022/11/27 12:55:49;;;;;;;10.43;6.53;;;;;;;;;;5153386;27;20436;-67
2022/11/27 12:58:21;;;;;;;10.60;5.90;;;;;;;;;;5156320;27;20463;-68
2022/11/27 13:00:48;;;;;;;16.23;9.27;;;;;;;;;;5157315;27;20806;-68
2022/11/27 13:03:19;;;;;;;12.17;8.00;;;;;;;;;;5157811;27;20876;-68
2022/11/27 13:05:48;;;;;;;17.73;9.67;;;;;;;;;;5156933;27;20447;-68
2022/11/27 13:08:19;;;;;;;12.07;7.43;;;;;;;;;;5157245;27;20472;-68
2022/11/27 13:10:48;;;;;;;180.97;96.23;;;;;;;;;;5157091;27;20443;-69
2022/11/27 13:13:17;;;;;;;16.67;8.33;;;;;;;;;;5156927;27;20551;-69
2022/11/27 13:15:45;;;;;;;12.40;9.33;;;;;;;;;;5154817;27;20439;-68
2022/11/27 13:18:17;;;;;;;16.30;8.93;;;;;;;;;;5157188;27;20472;-68
2022/11/27 13:20:45;;;;;;;18.87;10.43;;;;;;;;;;5156227;27;20470;-69
2022/11/27 13:23:13;;;;;;;19.10;9.67;;;;;;;;;;5157094;27;20459;-68
2022/11/27 13:25:44;;;;;;;13.50;7.57;;;;;;;;;;5156424;27;20466;-68
2022/11/27 13:28:18;;;;;;;15.13;9.33;;;;;;;;;;5156982;27;20897;-67
2022/11/27 13:30:46;;;;;;;25.00;10.37;;;;;;;;;;5156708;27;20447;-68
2022/11/27 13:33:18;;;;;;;15.17;9.40;;;;;;;;;;5157053;27;20801;-67
2022/11/27 13:35:46;;;;;;;17.87;9.63;;;;;;;;;;5156248;27;20446;-67
2022/11/27 13:38:15;;;;;;;13.63;9.40;;;;;;;;;;5156511;27;20523;-68
2022/11/27 13:40:45;;;;;;;17.93;10.47;;;;;;;;;;5156511;27;20450;-68
2022/11/27 13:43:19;;;;;;;23.93;17.20;;;;;;;;;;5156946;27;20819;-67
2022/11/27 13:45:47;;;;;;;16.17;9.30;;;;;;;;;;5156309;27;20454;-67
2022/11/27 13:48:27;;;;;;;17.10;9.60;;;;;;;;;;5156547;27;20990;-68
2022/11/27 13:50:54;;;;;;;17.60;9.87;;;;;;;;;;5156285;27;20814;-67
2022/11/27 13:53:30;;;;;;;17.77;12.13;;;;;;;;;;5156399;27;20454;-67
2022/11/27 13:55:58;;;;;;;23.70;12.57;;;;;;;;;;5156393;27;20796;-67
2022/11/27 13:58:29;;;;;;;19.10;9.10;;;;;;;;;;5156287;27;20455;-67
2022/11/27 14:00:57;;;;;;;16.70;8.90;;;;;;;;;;5155965;27;20448;-67
2022/11/27 14:03:25;;;;;;;17.57;9.50;;;;;;;;;;5155926;27;20469;-68
2022/11/27 14:05:53;;;;;;;20.33;11.97;;;;;;;;;;5156056;27;20967;-67
2022/11/27 14:08:21;;;;;;;15.77;8.70;;;;;;;;;;5155755;27;20470;-67
2022/11/27 14:10:53;;;;;;;18.63;10.90;;;;;;;;;;5155741;27;20443;-67
2022/11/27 14:13:22;;;;;;;19.20;11.30;;;;;;;;;;5155705;27;20459;-67
2022/11/27 14:16:01;;;;;;;18.73;11.37;;;;;;;;;;5154061;27;20466;-68
2022/11/27 14:18:30;;;;;;;31.70;21.53;;;;;;;;;;5155924;27;20450;-67
2022/11/27 14:20:59;;;;;;;20.13;11.90;;;;;;;;;;5155259;27;20471;-67
2022/11/27 14:23:28;;;;;;;18.97;12.63;;;;;;;;;;5155730;27;20443;-67
2022/11/27 14:26:01;;;;;;;19.37;10.70;;;;;;;;;;5155435;27;20860;-67
2022/11/27 14:28:31;;;;;;;20.40;11.60;;;;;;;;;;5155695;27;20482;-67